Time;durP1;ratioP1;P1;durP2;ratioP2;P2;SDS_P1;SDS_P2;PMS_P1;PMS_P2;Temp;Humidity;BMP_temperature;BMP_pressure;BME280_temperature;BME280_humidity;BME280_pressure;Samples;Min_cycle;Max_cycle;Signal;HPM_P1;HPM_P2
2024/04/21 00:00:09;;;;;;;12.52;2.70;;;6.40;66.40;;;;;;5492853;26;20347;-74
2024/04/21 00:02:35;;;;;;;17.30;3.33;;;;;;;;;;5525608;26;20767;-72
2024/04/21 00:05:01;;;;;;;13.43;3.00;;;;;;;;;;5524804;26;20324;-74
2024/04/21 00:07:27;;;;;;;18.60;2.97;;;;;;;;;;5525464;26;20348;-73
2024/04/21 00:09:53;;;;;;;14.23;2.80;;;;;;;;;;5525403;26;20316;-72
2024/04/21 00:12:19;;;;;;;21.63;4.00;;;;;;;;;;5525329;26;20679;-72
2024/04/21 00:14:45;;;;;;;18.35;3.22;;;;;;;;;;5525305;26;20359;-72
2024/04/21 00:17:11;;;;;;;17.23;3.40;;;6.50;95.30;;;;;;5525596;26;20323;-73
2024/04/21 00:19:36;;;;;;;14.80;4.00;;;6.00;60.50;;;;;;5524069;26;20352;-72
2024/04/21 00:22:02;;;;;;;14.07;3.80;;;;;;;;;;5525223;26;20340;-73
2024/04/21 00:24:30;;;;;;;14.27;3.58;;;;;;;;;;5524283;26;20734;-72
2024/04/21 00:26:56;;;;;;;20.83;4.32;;;;;;;;;;5524748;26;20680;-73
2024/04/21 00:29:22;;;;;;;13.88;3.78;;;6.30;77.10;;;;;;5525289;26;20312;-72
2024/04/21 00:31:47;;;;;;;15.63;3.77;;;6.60;64.70;;;;;;5525102;26;20366;-74
2024/04/21 00:34:16;;;;;;;16.57;3.87;;;6.40;94.00;;;;;;5524986;26;20324;-72
2024/04/21 00:36:42;;;;;;;19.10;2.97;;;;;;;;;;5524475;26;20377;-73
2024/04/21 00:39:08;;;;;;;14.48;3.75;;;;;;;;;;5525959;26;20417;-72
2024/04/21 00:41:34;;;;;;;21.17;5.70;;;;;;;;;;5525526;26;20339;-75
2024/04/21 00:44:00;;;;;;;23.20;8.00;;;6.50;74.60;;;;;;5525270;26;20323;-72
2024/04/21 00:46:27;;;;;;;23.77;6.13;;;6.50;68.60;;;;;;5524162;26;20335;-74
2024/04/21 00:48:54;;;;;;;22.52;7.82;;;;;;;;;;5524956;26;20320;-73
2024/04/21 00:51:22;;;;;;;21.90;6.55;;;;;;;;;;5524586;25;20324;-73
2024/04/21 00:53:48;;;;;;;22.67;5.15;;;;;;;;;;5524957;26;20334;-73
2024/04/21 00:56:16;;;;;;;25.20;5.50;;;;;;;;;;5524441;26;20316;-73
2024/04/21 00:58:42;;;;;;;17.20;4.50;;;;;;;;;;5524365;26;20836;-73
2024/04/21 01:01:09;;;;;;;18.98;4.22;;;;;;;;;;5524289;26;20349;-72
2024/04/21 01:03:35;;;;;;;15.23;3.80;;;;;;;;;;5524174;26;20821;-73
2024/04/21 01:06:01;;;;;;;7.53;2.50;;;;;;;;;;5523982;26;20316;-73
2024/04/21 01:08:27;;;;;;;13.65;3.08;;;;;;;;;;5528089;26;20359;-73
2024/04/21 01:10:53;;;;;;;13.13;2.92;;;;;;;;;;5524119;26;20315;-72
2024/04/21 01:13:19;;;;;;;16.17;2.70;;;;;;;;;;5524364;26;20349;-73
2024/04/21 01:15:50;;;;;;;14.88;2.47;;;;;;;;;;5524476;26;20795;-72
2024/04/21 01:18:16;;;;;;;15.70;3.15;;;;;;;;;;5528387;26;20315;-71
2024/04/21 01:20:42;;;;;;;18.48;3.90;;;;;;;;;;5523987;26;20331;-73
2024/04/21 01:23:08;;;;;;;13.57;3.83;;;;;;;;;;5524368;26;20873;-72
2024/04/21 01:25:34;;;;;;;14.00;3.22;;;;;;;;;;5523122;26;20387;-72
2024/04/21 01:28:00;;;;;;;13.43;3.40;;;;;;;;;;5524403;26;20316;-72
2024/04/21 01:30:26;;;;;;;18.05;5.32;;;6.10;74.90;;;;;;5523294;26;20327;-71
2024/04/21 01:32:52;;;;;;;21.05;7.57;;;;;;;;;;5524173;26;20352;-72
2024/04/21 01:35:18;;;;;;;17.03;3.67;;;;;;;;;;5523063;26;20320;-71
2024/04/21 01:37:43;;;;;;;9.02;2.20;;;;;;;;;;5522773;26;20350;-72
2024/04/21 01:40:10;;;;;;;10.27;2.17;;;;;;;;;;5531309;26;20312;-72
2024/04/21 01:42:36;;;;;;;13.30;2.85;;;;;;;;;;5537257;26;20423;-72
2024/04/21 01:45:02;;;;;;;14.00;4.25;;;;;;;;;;5491216;26;20751;-72
2024/04/21 01:47:28;;;;;;;7.97;2.90;;;;;;;;;;5522741;26;20696;-73
2024/04/21 01:49:54;;;;;;;10.55;3.00;;;;;;;;;;5523495;25;20719;-72
2024/04/21 01:52:20;;;;;;;14.80;3.90;;;;;;;;;;5523303;26;20320;-73
2024/04/21 01:54:46;;;;;;;14.07;4.53;;;;;;;;;;5523317;26;20794;-72
2024/04/21 01:57:12;;;;;;;15.05;3.47;;;;;;;;;;5523195;26;20671;-72
2024/04/21 01:59:38;;;;;;;11.50;3.88;;;;;;;;;;5523185;26;20331;-72
2024/04/21 02:02:04;;;;;;;7.85;2.75;;;;;;;;;;5523291;26;20307;-72
2024/04/21 02:04:30;;;;;;;11.82;2.90;;;;;;;;;;5523002;26;20416;-70
2024/04/21 02:06:56;;;;;;;15.00;4.00;;;;;;;;;;5523014;26;20340;-73
2024/04/21 02:09:22;;;;;;;11.55;4.05;;;;;;;;;;5522958;26;20324;-73
2024/04/21 02:11:48;;;;;;;12.25;4.40;;;;;;;;;;5522774;26;20315;-73
2024/04/21 02:14:14;;;;;;;6.50;2.33;;;;;;;;;;5522631;26;20320;-73
2024/04/21 02:16:40;;;;;;;11.95;3.90;;;;;;;;;;5522613;26;20454;-72
2024/04/21 02:19:08;;;;;;;9.45;3.47;;;;;;;;;;5522838;26;20315;-73
2024/04/21 02:21:34;;;;;;;12.32;4.28;;;;;;;;;;5522497;26;20454;-73
2024/04/21 02:24:00;;;;;;;12.30;4.43;;;;;;;;;;5522708;26;20628;-71
2024/04/21 02:26:26;;;;;;;11.55;4.47;;;;;;;;;;5522514;26;20319;-72
2024/04/21 02:28:52;;;;;;;13.33;4.60;;;;;;;;;;5522888;26;20308;-72
2024/04/21 02:31:18;;;;;;;11.02;3.53;;;;;;;;;;5522392;26;20341;-73
2024/04/21 02:33:44;;;;;;;12.38;2.97;;;;;;;;;;5490103;26;20659;-73
2024/04/21 02:36:10;;;;;;;6.15;2.30;;;4.10;74.40;;;;;;5522055;26;20360;-73
2024/04/21 02:38:35;;;;;;;7.57;2.03;;;4.10;76.50;;;;;;5522899;26;20496;-72
2024/04/21 02:41:01;;;;;;;10.97;2.50;;;4.00;76.60;;;;;;5523197;26;20810;-73
2024/04/21 02:43:26;;;;;;;8.40;2.30;;;4.30;78.80;;;;;;5522474;26;20304;-72
2024/04/21 02:45:52;;;;;;;6.57;2.00;;;4.00;77.00;;;;;;5522020;26;20323;-72
2024/04/21 02:48:17;;;;;;;4.70;1.90;;;3.90;77.60;;;;;;5522278;26;20367;-72
2024/04/21 02:50:44;;;;;;;9.20;2.25;;;3.90;78.70;;;;;;5522242;25;20339;-72
2024/04/21 02:53:09;;;;;;;7.38;2.30;;;3.90;78.70;;;;;;5522350;26;20656;-73
2024/04/21 02:55:42;;;;;;;7.97;2.10;;;3.90;80.40;;;;;;5521763;26;20810;-71
2024/04/21 02:58:07;;;;;;;7.95;2.40;;;3.90;80.00;;;;;;5521984;26;20323;-73
2024/04/21 03:00:36;;;;;;;7.30;2.15;;;3.90;79.60;;;;;;5525272;26;20331;-71
2024/04/21 03:03:01;;;;;;;6.90;1.80;;;4.30;88.20;;;;;;5526028;26;20312;-72
2024/04/21 03:05:27;;;;;;;6.60;2.10;;;4.00;87.50;;;;;;5525717;26;20312;-73
2024/04/21 03:07:52;;;;;;;6.60;2.10;;;4.10;90.30;;;;;;5526680;26;20359;-72
2024/04/21 03:10:18;;;;;;;4.53;2.10;;;4.00;80.70;;;;;;5526374;26;20366;-71
2024/04/21 03:12:46;;;;;;;7.77;2.03;;;4.00;84.10;;;;;;5493257;26;20311;-70
2024/04/21 03:15:11;;;;;;;7.95;2.50;;;3.90;81.20;;;;;;5525723;26;20338;-70
2024/04/21 03:17:37;;;;;;;4.03;2.20;;;3.70;82.70;;;;;;5526144;26;20307;-71
2024/04/21 03:20:03;;;;;;;9.83;2.90;;;3.70;90.70;;;;;;5525987;26;20393;-71
2024/04/21 03:22:28;;;;;;;5.30;2.10;;;3.90;80.90;;;;;;5525870;26;20324;-73
2024/04/21 03:24:54;;;;;;;6.05;2.40;;;3.90;80.70;;;;;;5525963;26;20336;-71
2024/04/21 03:27:19;;;;;;;7.05;2.60;;;3.90;79.60;;;;;;5526316;26;20323;-71
2024/04/21 03:29:48;;;;;;;12.38;2.50;;;3.90;80.50;;;;;;5539865;26;20315;-74
2024/04/21 03:32:15;;;;;;;6.63;2.00;;;3.60;91.00;;;;;;5527078;26;20332;-73
2024/04/21 03:34:40;;;;;;;10.13;2.30;;;3.70;82.70;;;;;;5526415;26;20362;-72
2024/04/21 03:37:06;;;;;;;5.53;2.00;;;3.90;79.50;;;;;;5525379;26;20315;-73
2024/04/21 03:39:31;;;;;;;8.02;2.00;;;3.50;97.40;;;;;;5526100;26;20332;-72
2024/04/21 03:41:57;;;;;;;10.70;2.33;;;3.80;80.30;;;;;;5527078;26;20392;-72
2024/04/21 03:44:23;;;;;;;6.35;2.33;;;3.80;80.10;;;;;;5528929;26;20315;-73
2024/04/21 03:46:48;;;;;;;9.23;1.87;;;3.80;81.30;;;;;;5526561;26;20367;-72
2024/04/21 03:49:14;;;;;;;8.57;2.73;;;3.90;99.00;;;;;;5526232;26;20320;-72
2024/04/21 03:51:39;;;;;;;4.47;1.80;;;3.90;80.10;;;;;;5526299;26;20323;-73
2024/04/21 03:54:05;;;;;;;7.35;2.00;;;4.00;79.50;;;;;;5526862;26;20316;-72
2024/04/21 03:56:30;;;;;;;8.75;2.30;;;4.00;78.90;;;;;;5527345;26;20347;-72
2024/04/21 03:58:56;;;;;;;8.65;2.20;;;4.10;78.50;;;;;;5528096;26;20316;-72
2024/04/21 04:01:22;;;;;;;7.63;2.20;;;4.20;77.80;;;;;;5526630;26;20364;-72
2024/04/21 04:03:47;;;;;;;8.17;2.30;;;4.20;77.40;;;;;;5526235;26;20348;-72
2024/04/21 04:06:13;;;;;;;8.50;2.10;;;4.20;77.00;;;;;;5525437;26;20351;-71
2024/04/21 04:08:38;;;;;;;5.65;2.00;;;4.30;74.60;;;;;;5525972;26;20863;-72
2024/04/21 04:11:04;;;;;;;6.47;2.08;;;4.20;73.50;;;;;;5525488;26;20328;-72
2024/04/21 04:13:30;;;;;;;10.35;2.65;;;4.20;74.70;;;;;;5526349;26;20331;-72
2024/04/21 04:15:55;;;;;;;6.00;2.10;;;4.20;74.20;;;;;;5500769;26;20356;-72
2024/04/21 04:18:21;;;;;;;12.27;2.20;;;4.30;73.50;;;;;;5530840;26;20830;-72
2024/04/21 04:20:46;;;;;;;9.90;2.40;;;4.20;74.60;;;;;;5530194;26;20352;-73
2024/04/21 04:23:12;;;;;;;7.60;2.30;;;4.30;75.10;;;;;;5533266;26;20315;-72
2024/04/21 04:25:37;;;;;;;11.57;2.50;;;4.30;76.40;;;;;;5542645;26;20312;-72
2024/04/21 04:28:03;;;;;;;8.17;2.33;;;4.30;76.50;;;;;;5543832;26;20315;-71
2024/04/21 04:30:29;;;;;;;9.23;2.10;;;4.40;71.40;;;;;;5543170;26;20358;-71
2024/04/21 04:32:55;;;;;;;8.30;1.90;;;4.50;73.10;;;;;;5526855;26;20659;-72
2024/04/21 04:35:20;;;;;;;12.52;2.70;;;4.50;71.70;;;;;;5526994;26;20379;-72
2024/04/21 04:37:46;;;;;;;8.90;2.20;;;4.50;71.90;;;;;;5528647;26;20339;-72
2024/04/21 04:40:11;;;;;;;10.70;2.63;;;4.70;77.10;;;;;;5526545;26;20320;-72
2024/04/21 04:42:37;;;;;;;8.97;2.17;;;4.40;73.70;;;;;;5525494;26;20835;-72
2024/04/21 04:45:03;;;;;;;8.00;2.20;;;4.40;74.30;;;;;;5524947;26;20368;-71
2024/04/21 04:47:28;;;;;;;8.77;2.47;;;4.30;74.50;;;;;;5525602;26;20311;-72
2024/04/21 04:49:55;;;;;;;8.80;2.77;;;4.40;82.70;;;;;;5525341;26;20412;-73
2024/04/21 04:52:22;;;;;;;6.35;2.47;;;4.40;84.70;;;;;;5524113;26;20374;-72
2024/04/21 04:54:47;;;;;;;6.97;2.67;;;4.40;75.10;;;;;;5524846;26;20336;-73
2024/04/21 04:57:13;;;;;;;8.20;2.40;;;4.60;79.10;;;;;;5524617;26;20356;-73
2024/04/21 04:59:39;;;;;;;7.53;2.00;;;4.50;75.90;;;;;;5525105;26;20663;-72
2024/04/21 05:02:04;;;;;;;11.27;3.07;;;5.00;74.10;;;;;;5525053;26;20331;-72
2024/04/21 05:04:30;;;;;;;9.70;2.43;;;4.60;79.80;;;;;;5524458;26;20323;-74
2024/04/21 05:06:55;;;;;;;9.75;3.25;;;4.70;72.20;;;;;;5525227;26;20354;-72
2024/04/21 05:09:21;;;;;;;8.77;2.80;;;4.80;71.20;;;;;;5524958;26;20371;-73
2024/04/21 05:11:46;;;;;;;12.30;2.58;;;5.00;81.10;;;;;;5524694;26;20370;-73
2024/04/21 05:14:12;;;;;;;9.90;2.70;;;5.00;77.60;;;;;;5525772;26;20327;-75
2024/04/21 05:16:39;;;;;;;9.97;3.10;;;5.20;70.90;;;;;;5524616;26;20814;-72
2024/04/21 05:19:04;;;;;;;10.68;2.90;;;5.20;71.70;;;;;;5524987;26;20655;-72
2024/04/21 05:21:30;;;;;;;11.37;2.90;;;5.40;69.60;;;;;;5524511;26;20351;-72
2024/04/21 05:23:56;;;;;;;13.20;2.90;;;5.20;85.80;;;;;;5528708;26;20354;-74
2024/04/21 05:26:21;;;;;;;8.50;2.50;;;5.40;68.90;;;;;;5529257;26;20328;-71
2024/04/21 05:28:47;;;;;;;7.50;2.73;;;5.50;69.20;;;;;;5529341;26;20324;-73
2024/04/21 05:31:13;;;;;;;7.10;1.93;;;5.80;76.10;;;;;;5497272;26;20394;-73
2024/04/21 05:33:38;;;;;;;12.53;2.73;;;5.50;68.70;;;;;;5529186;26;20435;-73
2024/04/21 05:36:04;;;;;;;9.27;2.10;;;5.50;87.40;;;;;;5528445;26;20391;-73
2024/04/21 05:38:29;;;;;;;8.87;2.70;;;5.70;65.90;;;;;;5528754;26;20331;-72
2024/04/21 05:40:55;;;;;;;7.30;2.30;;;5.70;76.80;;;;;;5528431;26;20331;-73
2024/04/21 05:43:20;;;;;;;11.87;3.30;;;5.80;61.70;;;;;;5524841;26;20368;-72
2024/04/21 05:45:46;;;;;;;8.53;2.60;;;5.80;62.70;;;;;;5524199;26;20666;-73
2024/04/21 05:48:11;;;;;;;9.50;2.50;;;6.00;71.70;;;;;;5524323;26;20398;-73
2024/04/21 05:50:41;;;;;;;8.70;1.90;;;6.00;60.30;;;;;;5524356;25;20919;-73
2024/04/21 05:53:06;;;;;;;7.40;2.92;;;6.00;61.30;;;;;;5523885;26;20739;-72
2024/04/21 05:55:33;;;;;;;10.00;2.70;;;6.00;63.40;;;;;;5523639;26;20407;-72
2024/04/21 05:57:59;;;;;;;9.13;3.10;;;6.10;64.70;;;;;;5523883;26;20417;-73
2024/04/21 06:00:24;;;;;;;12.35;3.63;;;6.20;61.80;;;;;;5490986;26;20752;-72
2024/04/21 06:02:50;;;;;;;16.40;3.60;;;6.20;63.00;;;;;;5524135;26;20867;-73
2024/04/21 06:05:15;;;;;;;12.82;3.53;;;6.40;64.80;;;;;;5524064;26;20438;-72
2024/04/21 06:07:41;;;;;;;10.35;2.88;;;6.40;67.50;;;;;;5524280;26;20430;-73
2024/04/21 06:10:07;;;;;;;7.82;2.90;;;6.90;62.70;;;;;;5524010;26;20671;-72
2024/04/21 06:12:32;;;;;;;7.57;2.80;;;7.00;53.10;;;;;;5524035;26;20703;-73
2024/04/21 06:14:58;;;;;;;11.68;3.10;;;7.30;63.70;;;;;;5523114;26;20384;-74
2024/04/21 06:17:23;;;;;;;13.40;4.10;;;6.50;53.40;;;;;;5523895;26;20362;-72
2024/04/21 06:19:49;;;;;;;11.32;2.30;;;6.30;56.10;;;;;;5523961;26;20869;-73
2024/04/21 06:22:14;;;;;;;10.20;2.40;;;6.40;54.40;;;;;;5524140;26;20323;-72
2024/04/21 06:24:40;;;;;;;12.82;2.70;;;6.40;55.40;;;;;;5523039;26;20345;-74
2024/04/21 06:27:05;;;;;;;13.93;3.45;;;6.60;54.40;;;;;;5523413;26;20316;-72
2024/04/21 06:29:31;;;;;;;13.80;3.50;;;6.60;66.30;;;;;;5523299;26;20324;-73
2024/04/21 06:31:57;;;;;;;12.10;3.60;;;6.70;51.90;;;;;;5522120;26;20323;-73
2024/04/21 06:34:22;;;;;;;17.75;3.40;;;6.60;53.00;;;;;;5525133;26;20339;-73
2024/04/21 06:36:48;;;;;;;14.97;4.30;;;6.60;53.90;;;;;;5525758;26;20315;-73
2024/04/21 06:39:13;;;;;;;18.00;4.40;;;6.70;59.60;;;;;;5494436;26;20372;-73
2024/04/21 06:41:39;;;;;;;14.37;4.43;;;6.70;52.60;;;;;;5525800;26;20319;-72
2024/04/21 06:44:04;;;;;;;14.73;4.70;;;6.90;53.10;;;;;;5526283;26;20413;-72
2024/04/21 06:46:30;;;;;;;19.90;6.67;;;7.20;58.60;;;;;;5526245;26;20319;-72
2024/04/21 06:48:55;;;;;;;16.33;5.67;;;7.50;53.00;;;;;;5528486;26;20363;-73
2024/04/21 06:51:21;;;;;;;18.50;7.20;;;7.50;49.60;;;;;;5525669;25;20319;-72
2024/04/21 06:53:47;;;;;;;18.30;6.73;;;7.40;56.80;;;;;;5525538;26;20347;-73
2024/04/21 06:56:12;;;;;;;18.03;7.53;;;7.30;51.30;;;;;;5525388;26;20324;-71
2024/04/21 06:58:38;;;;;;;17.30;6.90;;;7.20;53.20;;;;;;5525678;26;20437;-73
2024/04/21 07:01:03;;;;;;;13.88;6.65;;;7.10;53.70;;;;;;5525302;26;20386;-73
2024/04/21 07:03:29;;;;;;;13.85;5.40;;;7.20;53.20;;;;;;5525498;26;20323;-72
2024/04/21 07:05:55;;;;;;;15.27;4.70;;;7.20;51.60;;;;;;5524842;26;20369;-72
2024/04/21 07:08:20;;;;;;;19.92;5.15;;;6.80;55.60;;;;;;5525029;26;20670;-73
2024/04/21 07:10:46;;;;;;;13.30;4.37;;;6.70;55.90;;;;;;5525252;26;20327;-73
2024/04/21 07:13:11;;;;;;;13.50;4.37;;;6.50;55.10;;;;;;5525118;26;20434;-73
2024/04/21 07:15:38;;;;;;;13.30;5.00;;;6.20;57.40;;;;;;5524577;26;20323;-73
2024/04/21 07:18:04;;;;;;;14.05;4.38;;;6.40;57.90;;;;;;5525327;26;20363;-73
2024/04/21 07:20:29;;;;;;;16.10;4.38;;;6.60;69.70;;;;;;5525072;26;20712;-73
2024/04/21 07:22:55;;;;;;;22.00;4.55;;;6.60;54.60;;;;;;5525528;26;20371;-73
2024/04/21 07:25:20;;;;;;;13.80;3.80;;;6.60;55.80;;;;;;5525189;26;20434;-73
2024/04/21 07:27:46;;;;;;;11.68;4.50;;;6.80;65.50;;;;;;5525015;26;20751;-72
2024/04/21 07:30:12;;;;;;;13.57;3.80;;;6.90;52.50;;;;;;5525596;26;20311;-73
2024/04/21 07:32:37;;;;;;;11.57;3.50;;;7.20;52.00;;;;;;5525327;26;20327;-73
2024/04/21 07:35:03;;;;;;;14.48;5.13;;;7.30;47.60;;;;;;5525284;26;20436;-73
2024/04/21 07:37:28;;;;;;;19.77;4.70;;;7.50;46.50;;;;;;5525957;26;20342;-75
2024/04/21 07:39:55;;;;;;;14.18;4.57;;;7.60;44.70;;;;;;5525312;26;20362;-72
2024/04/21 07:42:20;;;;;;;16.40;5.15;;;8.30;55.10;;;;;;5524864;26;20324;-73
2024/04/21 07:44:47;;;;;;;10.87;4.63;;;8.40;47.20;;;;;;5522689;26;20420;-73
2024/04/21 07:47:12;;;;;;;11.73;5.78;;;7.70;46.10;;;;;;5525099;26;20425;-73
2024/04/21 07:49:38;;;;;;;13.80;4.30;;;7.60;45.40;;;;;;5524823;26;20340;-74
2024/04/21 07:52:04;;;;;;;15.52;3.78;;;7.60;44.80;;;;;;5524640;25;20339;-74
2024/04/21 07:54:29;;;;;;;11.85;3.33;;;7.30;44.60;;;;;;5492003;26;20335;-73
2024/04/21 07:56:55;;;;;;;15.70;3.70;;;7.70;51.00;;;;;;5523703;26;20335;-73
2024/04/21 07:59:20;;;;;;;13.33;3.80;;;7.80;42.90;;;;;;5524865;26;21100;-73
2024/04/21 08:01:49;;;;;;;13.50;3.00;;;8.20;40.00;;;;;;5525371;26;20383;-73
2024/04/21 08:04:15;;;;;;;13.60;3.20;;;8.40;43.70;;;;;;5510472;26;20978;-72
2024/04/21 08:06:40;;;;;;;11.57;2.63;;;8.90;41.50;;;;;;5481472;26;20326;-71
2024/04/21 08:09:06;;;;;;;11.57;2.40;;;8.40;39.00;;;;;;5470709;26;20846;-73
2024/04/21 08:11:31;;;;;;;9.40;2.60;;;7.90;45.40;;;;;;5521664;26;20328;-70
2024/04/21 08:13:57;;;;;;;8.70;2.57;;;8.00;37.40;;;;;;5521830;26;20838;-74
2024/04/21 08:16:23;;;;;;;8.00;3.47;;;7.80;38.40;;;;;;5521263;26;20416;-74
2024/04/21 08:18:48;;;;;;;10.07;3.17;;;7.40;47.20;;;;;;5521950;26;20318;-72
2024/04/21 08:21:14;;;;;;;14.75;4.00;;;7.60;41.60;;;;;;5521065;26;20358;-72
2024/04/21 08:23:40;;;;;;;8.93;3.25;;;7.80;39.60;;;;;;5521904;26;20316;-71
2024/04/21 08:26:05;;;;;;;14.88;3.70;;;7.70;44.00;;;;;;5520992;26;20319;-73
2024/04/21 08:28:31;;;;;;;9.80;3.30;;;7.60;43.50;;;;;;5521913;26;21035;-70
2024/04/21 08:30:57;;;;;;;9.25;3.30;;;7.70;46.10;;;;;;5522616;26;20323;-73
2024/04/21 08:33:22;;;;;;;10.13;3.30;;;7.80;41.20;;;;;;5522198;26;20360;-71
2024/04/21 08:35:55;;;;;;;10.30;3.53;;;8.00;42.70;;;;;;5521252;26;20320;-72
2024/04/21 08:38:21;;;;;;;5.05;3.08;;;8.30;38.90;;;;;;5521230;26;20327;-71
2024/04/21 08:40:49;;;;;;;11.63;4.93;;;8.20;36.80;;;;;;5521262;26;20363;-73
2024/04/21 08:43:25;;;;;;;11.35;4.30;;;8.80;45.60;;;;;;5521842;26;20319;-71
2024/04/21 08:45:53;;;;;;;11.25;3.90;;;9.00;39.80;;;;;;5521064;26;20468;-71
2024/04/21 08:48:19;;;;;;;10.45;3.90;;;8.90;34.50;;;;;;5521868;26;20366;-72
2024/04/21 08:50:48;;;;;;;9.23;3.83;;;8.50;34.50;;;;;;5521277;25;20375;-73
2024/04/21 08:53:13;;;;;;;8.57;3.97;;;8.80;34.90;;;;;;5521717;26;20430;-73
2024/04/21 08:55:46;;;;;;;10.48;4.97;;;9.00;42.30;;;;;;5520839;26;20379;-72
2024/04/21 08:58:13;;;;;;;8.63;4.40;;;9.10;37.30;;;;;;5520307;26;20411;-72
2024/04/21 09:00:39;;;;;;;8.52;4.00;;;9.20;38.40;;;;;;5497279;26;20326;-73
2024/04/21 09:03:05;;;;;;;5.27;3.30;;;9.30;35.70;;;;;;5520317;26;20351;-72
2024/04/21 09:05:32;;;;;;;12.87;5.00;;;9.00;34.20;;;;;;5522795;26;20342;-72
2024/04/21 09:07:58;;;;;;;10.48;4.47;;;9.10;33.80;;;;;;5522705;26;20364;-72
2024/04/21 09:10:24;;;;;;;7.22;3.30;;;9.10;34.50;;;;;;5521193;26;20825;-72
2024/04/21 09:12:50;;;;;;;5.30;3.30;;;9.30;33.40;;;;;;5525463;26;20331;-73
2024/04/21 09:15:16;;;;;;;7.00;3.80;;;9.30;33.60;;;;;;5524611;26;20387;-73
2024/04/21 09:17:42;;;;;;;11.68;4.90;;;9.50;40.90;;;;;;5525820;26;20327;-73
2024/04/21 09:20:09;;;;;;;7.65;4.07;;;9.70;36.00;;;;;;5523396;26;20323;-74
2024/04/21 09:22:34;;;;;;;5.78;3.72;;;9.70;32.30;;;;;;5523255;26;20826;-72
2024/04/21 09:25:00;;;;;;;7.97;3.63;;;9.60;31.70;;;;;;5489588;26;20331;-72
2024/04/21 09:27:29;;;;;;;8.90;4.60;;;9.00;31.90;;;;;;5490697;26;20408;-74
2024/04/21 09:29:58;;;;;;;8.05;4.70;;;9.20;39.10;;;;;;5523601;26;20320;-72
2024/04/21 09:32:26;;;;;;;11.75;6.78;;;9.60;37.20;;;;;;5522986;26;20327;-72
2024/04/21 09:34:54;;;;;;;9.68;5.18;;;9.60;33.20;;;;;;5523647;26;20336;-73
2024/04/21 09:37:19;;;;;;;9.75;4.57;;;9.60;32.70;;;;;;5491703;26;20741;-73
2024/04/21 09:39:49;;;;;;;7.35;4.65;;;10.00;32.00;;;;;;5524802;26;20360;-74
2024/04/21 09:42:18;;;;;;;6.23;4.07;;;9.70;32.60;;;;;;5524041;26;20363;-73
2024/04/21 09:44:45;;;;;;;7.57;3.95;;;10.60;29.40;;;;;;5522572;26;20327;-72
2024/04/21 09:47:14;;;;;;;7.70;4.10;;;10.10;34.70;;;;;;5522608;26;20376;-73
2024/04/21 09:49:43;;;;;;;7.10;4.38;;;9.80;28.80;;;;;;5522358;26;20328;-73
2024/04/21 09:52:17;;;;;;;7.38;4.57;;;9.80;36.20;;;;;;5522186;25;20320;-72
2024/04/21 09:54:43;;;;;;;7.33;4.63;;;10.50;29.10;;;;;;5522481;26;20316;-72
2024/04/21 09:57:11;;;;;;;5.82;3.30;;;10.80;29.60;;;;;;5522585;26;20324;-72
2024/04/21 09:59:38;;;;;;;5.07;3.30;;;10.10;28.20;;;;;;5522413;26;20873;-72
2024/04/21 10:02:23;;;;;;;5.80;3.50;;;9.90;34.10;;;;;;5523152;26;20352;-73
2024/04/21 10:05:05;;;;;;;5.50;3.20;;;10.00;29.30;;;;;;5485253;26;20359;-73
2024/04/21 10:07:34;;;;;;;6.13;3.63;;;9.70;29.10;;;;;;5518554;26;20328;-73
2024/04/21 10:10:09;;;;;;;8.55;3.80;;;9.90;36.00;;;;;;5522696;26;20320;-71
2024/04/21 10:12:36;;;;;;;7.68;4.70;;;10.00;30.40;;;;;;5522215;26;20339;-73
2024/04/21 10:15:06;;;;;;;12.75;5.88;;;10.00;30.60;;;;;;5525035;26;20327;-72
2024/04/21 10:17:33;;;;;;;8.18;3.80;;;10.10;31.50;;;;;;5542020;26;20345;-72
2024/04/21 10:20:04;;;;;;;5.80;3.40;;;10.40;27.20;;;;;;5542042;26;20308;-72
2024/04/21 10:22:31;;;;;;;7.55;3.75;;;10.40;27.00;;;;;;5535014;26;20922;-71
2024/04/21 10:24:56;;;;;;;8.45;4.28;;;10.30;28.00;;;;;;5522140;26;20323;-71
2024/04/21 10:27:22;;;;;;;6.87;3.30;;;10.70;29.00;;;;;;5522825;26;20366;-73
2024/04/21 10:29:49;;;;;;;6.55;3.42;;;10.90;32.60;;;;;;5522292;26;20316;-72
2024/04/21 10:32:22;;;;;;;3.65;2.85;;;10.30;26.30;;;;;;5522909;26;20331;-71
2024/04/21 10:34:48;;;;;;;7.30;4.07;;;9.60;34.50;;;;;;5489048;26;20351;-72
2024/04/21 10:37:15;;;;;;;5.30;3.20;;;9.20;36.30;;;;;;5522160;26;20320;-72
2024/04/21 10:39:40;;;;;;;5.67;3.50;;;9.50;32.00;;;;;;5489827;26;20434;-72
2024/04/21 10:42:09;;;;;;;10.20;6.13;;;9.30;29.70;;;;;;5521579;26;20356;-73
2024/04/21 10:44:35;;;;;;;7.15;5.18;;;9.80;28.90;;;;;;5521247;26;20339;-73
2024/04/21 10:47:00;;;;;;;9.70;5.90;;;10.40;32.50;;;;;;5521532;26;20312;-72
2024/04/21 10:49:26;;;;;;;7.10;4.45;;;10.70;27.20;;;;;;5521535;26;20324;-72
2024/04/21 10:51:52;;;;;;;4.47;3.17;;;11.50;24.60;;;;;;5488656;26;20327;-73
2024/04/21 10:54:17;;;;;;;6.40;4.27;;;12.10;26.60;;;;;;5521663;26;20323;-73
2024/04/21 10:56:43;;;;;;;5.63;3.70;;;12.10;21.10;;;;;;5520947;26;20359;-72
2024/04/21 10:59:09;;;;;;;4.57;2.77;;;12.20;19.70;;;;;;5529366;26;20348;-73
2024/04/21 11:01:34;;;;;;;5.70;3.20;;;11.80;23.00;;;;;;5531808;26;20339;-72
2024/04/21 11:04:01;;;;;;;6.30;3.23;;;11.70;20.00;;;;;;5533695;26;20359;-73
2024/04/21 11:06:27;;;;;;;7.80;4.60;;;11.30;21.30;;;;;;5521393;26;20320;-73
2024/04/21 11:08:53;;;;;;;5.40;3.13;;;11.00;23.20;;;;;;5521614;26;20660;-72
2024/04/21 11:11:18;;;;;;;9.05;4.60;;;10.80;22.20;;;;;;5521347;26;20387;-73
2024/04/21 11:13:44;;;;;;;8.30;4.70;;;11.50;26.50;;;;;;5521772;26;20394;-74
2024/04/21 11:16:11;;;;;;;5.32;4.03;;;11.90;19.80;;;;;;5520418;26;20327;-75
2024/04/21 11:18:37;;;;;;;8.85;5.05;;;12.60;19.00;;;;;;5520973;26;20312;-74
2024/04/21 11:21:03;;;;;;;4.82;3.60;;;12.50;23.20;;;;;;5523613;26;20403;-74
2024/04/21 11:23:29;;;;;;;7.22;4.22;;;12.90;21.20;;;;;;5524847;26;20332;-72
2024/04/21 11:25:55;;;;;;;3.78;2.83;;;12.50;20.30;;;;;;5524945;26;20339;-73
2024/04/21 11:28:22;;;;;;;4.70;2.60;;;12.40;18.00;;;;;;5524818;26;20350;-73
2024/04/21 11:30:47;;;;;;;4.57;2.65;;;12.20;17.30;;;;;;5524964;26;20623;-73
2024/04/21 11:33:13;;;;;;;7.95;3.60;;;12.20;16.70;;;;;;5524522;26;20356;-73
2024/04/21 11:35:40;;;;;;;5.30;2.60;;;13.40;20.10;;;;;;5523880;26;20327;-73
2024/04/21 11:38:06;;;;;;;7.25;3.58;;;12.00;17.30;;;;;;5525555;26;20400;-73
2024/04/21 11:40:36;;;;;;;4.47;3.10;;;12.30;17.30;;;;;;5524951;26;20344;-73
2024/04/21 11:43:02;;;;;;;4.97;2.90;;;12.30;18.10;;;;;;5524915;26;20380;-73
2024/04/21 11:45:28;;;;;;;4.20;2.10;;;;;;;;;;5525316;26;20783;-74
2024/04/21 11:47:55;;;;;;;3.90;2.70;;;12.00;16.40;;;;;;5526152;26;20455;-72
2024/04/21 11:50:22;;;;;;;3.88;2.70;;;11.40;17.90;;;;;;5525983;26;20699;-72
2024/04/21 11:52:47;;;;;;;3.53;2.78;;;11.30;16.90;;;;;;5526708;26;20359;-73
2024/04/21 11:55:13;;;;;;;4.05;2.40;;;11.60;20.00;;;;;;5527984;26;20790;-73
2024/04/21 11:57:41;;;;;;;4.50;2.40;;;10.80;16.70;;;;;;5526984;26;20367;-73
2024/04/21 12:00:07;;;;;;;3.42;2.35;;;11.00;24.90;;;;;;5525028;26;20371;-72
2024/04/21 12:02:33;;;;;;;4.72;2.35;;;11.00;23.80;;;;;;5525240;26;20320;-74
2024/04/21 12:04:59;;;;;;;4.30;2.30;;;10.90;17.40;;;;;;5525858;26;20339;-74
2024/04/21 12:07:24;;;;;;;4.72;2.78;;;11.20;18.10;;;;;;5525447;26;20370;-73
2024/04/21 12:09:50;;;;;;;4.50;2.45;;;11.90;19.50;;;;;;5525107;26;20359;-74
2024/04/21 12:12:16;;;;;;;3.67;2.13;;;12.00;18.70;;;;;;5524503;26;20339;-72
2024/04/21 12:14:41;;;;;;;2.70;2.40;;;12.20;16.10;;;;;;5524923;26;20686;-76
2024/04/21 12:17:08;;;;;;;2.65;2.13;;;13.10;18.30;;;;;;5525236;26;20315;-73
2024/04/21 12:19:34;;;;;;;2.97;2.25;;;12.10;17.20;;;;;;5525938;26;20347;-75
2024/04/21 12:22:00;;;;;;;3.47;2.10;;;12.00;16.50;;;;;;5525063;26;20351;-72
2024/04/21 12:24:26;;;;;;;8.60;2.80;;;12.10;16.30;;;;;;5525610;26;20332;-72
2024/04/21 12:26:52;;;;;;;3.67;2.50;;;12.00;16.90;;;;;;5525799;26;20431;-72
2024/04/21 12:29:17;;;;;;;3.95;2.63;;;13.60;21.10;;;;;;5524315;26;20972;-73
2024/04/21 12:31:43;;;;;;;2.20;1.70;;;12.30;16.60;;;;;;5524990;26;20833;-73
2024/04/21 12:34:09;;;;;;;2.77;2.00;;;12.60;14.50;;;;;;5524380;26;20376;-72
2024/04/21 12:36:34;;;;;;;7.20;2.17;;;12.70;19.40;;;;;;5525210;26;20331;-72
2024/04/21 12:39:00;;;;;;;3.67;1.80;;;12.40;13.30;;;;;;5525161;26;20339;-73
2024/04/21 12:41:25;;;;;;;1.80;1.47;;;11.80;14.40;;;;;;5524973;26;20352;-71
2024/04/21 12:43:51;;;;;;;2.50;1.70;;;11.70;19.70;;;;;;5524458;26;20955;-71
2024/04/21 12:46:16;;;;;;;2.90;1.83;;;11.80;15.10;;;;;;5524028;26;20695;-71
2024/04/21 12:48:42;;;;;;;3.95;1.80;;;11.40;17.00;;;;;;5524402;26;20869;-71
2024/04/21 12:51:07;;;;;;;2.20;1.52;;;11.30;17.30;;;;;;5524014;25;20806;-71
2024/04/21 12:53:33;;;;;;;9.82;2.30;;;11.40;16.20;;;;;;5523720;26;20465;-72
2024/04/21 12:55:59;;;;;;;2.58;1.70;;;11.60;22.90;;;;;;5523521;26;20319;-70
2024/04/21 12:58:24;;;;;;;3.00;2.13;;;11.70;15.10;;;;;;5523733;26;20428;-72
2024/04/21 13:00:50;;;;;;;3.30;1.50;;;11.70;13.60;;;;;;5523421;26;20367;-73